sensor_id;sensor_type;location;lat;lon;timestamp;pressure;altitude;pressure_sealevel;temperature;humidity
2875;BME280;1445;52.600;13.328;2024-01-30T00:00:22;79676.06;;;-145.99;100.00
2875;BME280;1445;52.600;13.328;2024-01-30T00:02:47;79680.28;;;-145.99;100.00
2875;BME280;1445;52.600;13.328;2024-01-30T00:05:13;79684.47;;;-145.99;100.00
2875;BME280;1445;52.600;13.328;2024-01-30T00:07:38;79703.38;;;-145.99;100.00
2875;BME280;1445;52.600;13.328;2024-01-30T00:10:03;79705.50;;;-145.99;100.00
2875;BME280;1445;52.600;13.328;2024-01-30T00:12:29;79707.59;;;-145.99;100.00
2875;BME280;1445;52.600;13.328;2024-01-30T00:14:55;79716.00;;;-145.99;100.00
2875;BME280;1445;52.600;13.328;2024-01-30T00:17:20;79716.00;;;-145.99;100.00
2875;BME280;1445;52.600;13.328;2024-01-30T00:19:46;79711.78;;;-145.99;100.00
2875;BME280;1445;52.600;13.328;2024-01-30T00:22:11;79720.19;;;-145.99;100.00
2875;BME280;1445;52.600;13.328;2024-01-30T00:24:36;79713.91;;;-145.99;100.00
2875;BME280;1445;52.600;13.328;2024-01-30T00:27:01;79718.09;;;-145.99;100.00
2875;BME280;1445;52.600;13.328;2024-01-30T00:29:27;79728.59;;;-145.99;100.00
2875;BME280;1445;52.600;13.328;2024-01-30T00:31:55;79724.41;;;-145.99;100.00
2875;BME280;1445;52.600;13.328;2024-01-30T00:34:20;79728.59;;;-145.99;100.00
2875;BME280;1445;52.600;13.328;2024-01-30T00:36:46;79713.91;;;-145.99;100.00
2875;BME280;1445;52.600;13.328;2024-01-30T00:39:11;79720.19;;;-145.99;100.00
2875;BME280;1445;52.600;13.328;2024-01-30T00:41:36;79716.00;;;-145.99;100.00
2875;BME280;1445;52.600;13.328;2024-01-30T00:44:02;79711.78;;;-145.99;100.00
2875;BME280;1445;52.600;13.328;2024-01-30T00:46:27;79722.31;;;-145.99;100.00
2875;BME280;1445;52.600;13.328;2024-01-30T00:48:52;79713.91;;;-145.99;100.00
2875;BME280;1445;52.600;13.328;2024-01-30T00:51:17;79713.91;;;-145.99;100.00
2875;BME280;1445;52.600;13.328;2024-01-30T00:53:43;79713.91;;;-145.99;100.00
2875;BME280;1445;52.600;13.328;2024-01-30T00:56:08;79716.00;;;-145.99;100.00
2875;BME280;1445;52.600;13.328;2024-01-30T00:58:33;79718.09;;;-145.99;100.00
2875;BME280;1445;52.600;13.328;2024-01-30T01:00:59;79720.19;;;-145.99;100.00
2875;BME280;1445;52.600;13.328;2024-01-30T01:03:24;79720.19;;;-145.99;100.00
2875;BME280;1445;52.600;13.328;2024-01-30T01:05:49;79716.00;;;-145.99;100.00
2875;BME280;1445;52.600;13.328;2024-01-30T01:08:15;79718.09;;;-145.99;100.00
2875;BME280;1445;52.600;13.328;2024-01-30T01:10:40;79728.59;;;-145.99;100.00
2875;BME280;1445;52.600;13.328;2024-01-30T01:13:05;79726.50;;;-145.99;100.00
2875;BME280;1445;52.600;13.328;2024-01-30T01:15:30;79730.72;;;-145.99;100.00
2875;BME280;1445;52.600;13.328;2024-01-30T01:17:56;79730.72;;;-145.99;100.00
2875;BME280;1445;52.600;13.328;2024-01-30T01:20:21;79730.72;;;-145.99;100.00
2875;BME280;1445;52.600;13.328;2024-01-30T01:22:46;79737.00;;;-145.99;100.00
2875;BME280;1445;52.600;13.328;2024-01-30T01:25:11;79741.22;;;-145.99;100.00
2875;BME280;1445;52.600;13.328;2024-01-30T01:27:37;79739.13;;;-145.99;100.00
2875;BME280;1445;52.600;13.328;2024-01-30T01:30:09;79739.13;;;-145.99;100.00
2875;BME280;1445;52.600;13.328;2024-01-30T01:32:35;79741.22;;;-145.99;100.00
2875;BME280;1445;52.600;13.328;2024-01-30T01:35:01;79741.22;;;-145.99;100.00
2875;BME280;1445;52.600;13.328;2024-01-30T01:37:27;79743.31;;;-145.99;100.00
2875;BME280;1445;52.600;13.328;2024-01-30T01:39:52;79749.63;;;-145.99;100.00
2875;BME280;1445;52.600;13.328;2024-01-30T01:42:17;79747.53;;;-145.99;100.00
2875;BME280;1445;52.600;13.328;2024-01-30T01:44:43;79747.53;;;-145.99;100.00
2875;BME280;1445;52.600;13.328;2024-01-30T01:47:08;79758.03;;;-145.99;100.00
2875;BME280;1445;52.600;13.328;2024-01-30T01:49:33;79753.81;;;-145.99;100.00
2875;BME280;1445;52.600;13.328;2024-01-30T01:51:59;79755.94;;;-145.99;100.00
2875;BME280;1445;52.600;13.328;2024-01-30T01:54:25;79764.34;;;-145.99;100.00
2875;BME280;1445;52.600;13.328;2024-01-30T01:56:51;79770.63;;;-145.99;100.00
2875;BME280;1445;52.600;13.328;2024-01-30T01:59:16;79764.34;;;-145.99;100.00
2875;BME280;1445;52.600;13.328;2024-01-30T02:01:42;79770.63;;;-145.99;100.00
2875;BME280;1445;52.600;13.328;2024-01-30T02:04:08;79768.53;;;-145.99;100.00
2875;BME280;1445;52.600;13.328;2024-01-30T02:06:34;79758.03;;;-145.99;100.00
2875;BME280;1445;52.600;13.328;2024-01-30T02:09:01;79768.53;;;-145.99;100.00
2875;BME280;1445;52.600;13.328;2024-01-30T02:11:26;79772.75;;;-145.99;100.00
2875;BME280;1445;52.600;13.328;2024-01-30T02:13:52;79766.44;;;-145.99;100.00
2875;BME280;1445;52.600;13.328;2024-01-30T02:16:17;79772.75;;;-145.99;100.00
2875;BME280;1445;52.600;13.328;2024-01-30T02:18:43;79781.16;;;-145.99;100.00
2875;BME280;1445;52.600;13.328;2024-01-30T02:21:12;79791.66;;;-145.99;100.00
2875;BME280;1445;52.600;13.328;2024-01-30T02:23:37;79787.44;;;-145.99;100.00
2875;BME280;1445;52.600;13.328;2024-01-30T02:26:03;79783.25;;;-145.99;100.00
2875;BME280;1445;52.600;13.328;2024-01-30T02:28:28;79781.16;;;-145.99;100.00
2875;BME280;1445;52.600;13.328;2024-01-30T02:30:53;79793.75;;;-145.99;100.00
2875;BME280;1445;52.600;13.328;2024-01-30T02:33:19;79787.44;;;-145.99;100.00
2875;BME280;1445;52.600;13.328;2024-01-30T02:35:44;79781.16;;;-145.99;100.00
2875;BME280;1445;52.600;13.328;2024-01-30T02:38:09;79789.56;;;-145.99;100.00
2875;BME280;1445;52.600;13.328;2024-01-30T02:40:35;79787.44;;;-145.99;100.00
2875;BME280;1445;52.600;13.328;2024-01-30T02:43:01;79787.44;;;-145.99;100.00
2875;BME280;1445;52.600;13.328;2024-01-30T02:45:26;79793.75;;;-145.99;100.00
2875;BME280;1445;52.600;13.328;2024-01-30T02:47:52;79791.66;;;-145.99;100.00
2875;BME280;1445;52.600;13.328;2024-01-30T02:50:17;79800.06;;;-145.99;100.00
2875;BME280;1445;52.600;13.328;2024-01-30T02:52:42;79797.97;;;-145.99;100.00
2875;BME280;1445;52.600;13.328;2024-01-30T02:55:11;79806.38;;;-145.99;100.00
2875;BME280;1445;52.600;13.328;2024-01-30T02:57:37;79789.56;;;-145.99;100.00
2875;BME280;1445;52.600;13.328;2024-01-30T03:00:02;79791.66;;;-145.99;100.00
2875;BME280;1445;52.600;13.328;2024-01-30T03:02:29;79791.66;;;-145.99;100.00
2875;BME280;1445;52.600;13.328;2024-01-30T03:04:54;79787.44;;;-145.99;100.00
2875;BME280;1445;52.600;13.328;2024-01-30T03:07:19;79781.16;;;-145.99;100.00
2875;BME280;1445;52.600;13.328;2024-01-30T03:09:45;79791.66;;;-145.99;100.00
2875;BME280;1445;52.600;13.328;2024-01-30T03:12:10;79795.88;;;-145.99;100.00
2875;BME280;1445;52.600;13.328;2024-01-30T03:14:36;79795.88;;;-145.99;100.00
2875;BME280;1445;52.600;13.328;2024-01-30T03:17:01;79787.44;;;-145.99;100.00
2875;BME280;1445;52.600;13.328;2024-01-30T03:19:26;79783.25;;;-145.99;100.00
2875;BME280;1445;52.600;13.328;2024-01-30T03:21:52;79779.03;;;-145.99;100.00
2875;BME280;1445;52.600;13.328;2024-01-30T03:24:17;79793.75;;;-145.99;100.00
2875;BME280;1445;52.600;13.328;2024-01-30T03:26:43;79791.66;;;-145.99;100.00
2875;BME280;1445;52.600;13.328;2024-01-30T03:29:08;79781.16;;;-145.99;100.00
2875;BME280;1445;52.600;13.328;2024-01-30T03:31:33;79789.56;;;-145.99;100.00
2875;BME280;1445;52.600;13.328;2024-01-30T03:33:59;79779.03;;;-145.99;100.00
2875;BME280;1445;52.600;13.328;2024-01-30T03:36:24;79774.84;;;-145.99;100.00
2875;BME280;1445;52.600;13.328;2024-01-30T03:38:49;79781.16;;;-145.99;100.00
2875;BME280;1445;52.600;13.328;2024-01-30T03:41:14;79787.44;;;-145.99;100.00
2875;BME280;1445;52.600;13.328;2024-01-30T03:43:40;79783.25;;;-145.99;100.00
2875;BME280;1445;52.600;13.328;2024-01-30T03:46:05;79791.66;;;-145.99;100.00
2875;BME280;1445;52.600;13.328;2024-01-30T03:48:31;79793.75;;;-145.99;100.00
2875;BME280;1445;52.600;13.328;2024-01-30T03:50:56;79795.88;;;-145.99;100.00
2875;BME280;1445;52.600;13.328;2024-01-30T03:53:21;79791.66;;;-145.99;100.00
2875;BME280;1445;52.600;13.328;2024-01-30T03:55:47;79795.88;;;-145.99;100.00
2875;BME280;1445;52.600;13.328;2024-01-30T03:58:12;79800.06;;;-145.99;100.00
2875;BME280;1445;52.600;13.328;2024-01-30T04:00:37;79795.88;;;-145.99;100.00
2875;BME280;1445;52.600;13.328;2024-01-30T04:03:03;79800.06;;;-145.99;100.00
2875;BME280;1445;52.600;13.328;2024-01-30T04:05:28;79800.06;;;-145.99;100.00
2875;BME280;1445;52.600;13.328;2024-01-30T04:07:53;79804.28;;;-145.99;100.00
2875;BME280;1445;52.600;13.328;2024-01-30T04:10:19;79802.16;;;-145.99;100.00
2875;BME280;1445;52.600;13.328;2024-01-30T04:12:44;79802.16;;;-145.99;100.00
2875;BME280;1445;52.600;13.328;2024-01-30T04:15:09;79812.69;;;-145.99;100.00
2875;BME280;1445;52.600;13.328;2024-01-30T04:17:35;79804.28;;;-145.99;100.00
2875;BME280;1445;52.600;13.328;2024-01-30T04:20:00;79806.38;;;-145.99;100.00
2875;BME280;1445;52.600;13.328;2024-01-30T04:22:25;79802.16;;;-145.99;100.00
2875;BME280;1445;52.600;13.328;2024-01-30T04:24:50;79804.28;;;-145.99;100.00
2875;BME280;1445;52.600;13.328;2024-01-30T04:27:16;79804.28;;;-145.99;100.00
2875;BME280;1445;52.600;13.328;2024-01-30T04:29:41;79810.56;;;-145.99;100.00
2875;BME280;1445;52.600;13.328;2024-01-30T04:32:06;79804.28;;;-145.99;100.00
2875;BME280;1445;52.600;13.328;2024-01-30T04:34:32;79806.38;;;-145.99;100.00
2875;BME280;1445;52.600;13.328;2024-01-30T04:36:57;79806.38;;;-145.99;100.00
2875;BME280;1445;52.600;13.328;2024-01-30T04:39:22;79804.28;;;-145.99;100.00
2875;BME280;1445;52.600;13.328;2024-01-30T04:41:47;79806.38;;;-145.99;100.00
2875;BME280;1445;52.600;13.328;2024-01-30T04:44:13;79806.38;;;-145.99;100.00
2875;BME280;1445;52.600;13.328;2024-01-30T04:46:38;79812.69;;;-145.99;100.00
2875;BME280;1445;52.600;13.328;2024-01-30T04:49:04;79808.47;;;-145.99;100.00
2875;BME280;1445;52.600;13.328;2024-01-30T04:51:29;79814.78;;;-145.99;100.00
2875;BME280;1445;52.600;13.328;2024-01-30T04:53:54;79812.69;;;-145.99;100.00
2875;BME280;1445;52.600;13.328;2024-01-30T04:56:20;79812.69;;;-145.99;100.00
2875;BME280;1445;52.600;13.328;2024-01-30T04:58:45;79825.28;;;-145.99;100.00
2875;BME280;1445;52.600;13.328;2024-01-30T05:01:14;79816.88;;;-145.99;100.00
2875;BME280;1445;52.600;13.328;2024-01-30T05:03:39;79833.69;;;-145.99;100.00
2875;BME280;1445;52.600;13.328;2024-01-30T05:06:04;79821.09;;;-145.99;100.00
2875;BME280;1445;52.600;13.328;2024-01-30T05:08:30;79818.97;;;-145.99;100.00
2875;BME280;1445;52.600;13.328;2024-01-30T05:10:55;79814.78;;;-145.99;100.00
2875;BME280;1445;52.600;13.328;2024-01-30T05:13:21;79818.97;;;-145.99;100.00
2875;BME280;1445;52.600;13.328;2024-01-30T05:15:46;79808.47;;;-145.99;100.00
2875;BME280;1445;52.600;13.328;2024-01-30T05:18:14;79821.09;;;-145.99;100.00
2875;BME280;1445;52.600;13.328;2024-01-30T05:20:39;79823.19;;;-145.99;100.00
2875;BME280;1445;52.600;13.328;2024-01-30T05:23:05;79823.19;;;-145.99;100.00
2875;BME280;1445;52.600;13.328;2024-01-30T05:25:30;79818.97;;;-145.99;100.00
2875;BME280;1445;52.600;13.328;2024-01-30T05:27:55;79814.78;;;-145.99;100.00
2875;BME280;1445;52.600;13.328;2024-01-30T05:30:20;79825.28;;;-145.99;100.00
2875;BME280;1445;52.600;13.328;2024-01-30T05:32:46;79840.00;;;-145.99;100.00
2875;BME280;1445;52.600;13.328;2024-01-30T05:35:11;79835.78;;;-145.99;100.00
2875;BME280;1445;52.600;13.328;2024-01-30T05:37:36;79837.91;;;-145.99;100.00
2875;BME280;1445;52.600;13.328;2024-01-30T05:40:02;79833.69;;;-145.99;100.00
2875;BME280;1445;52.600;13.328;2024-01-30T05:42:27;79833.69;;;-145.99;100.00
2875;BME280;1445;52.600;13.328;2024-01-30T05:44:54;79825.28;;;-145.99;100.00
2875;BME280;1445;52.600;13.328;2024-01-30T05:47:19;79833.69;;;-145.99;100.00
2875;BME280;1445;52.600;13.328;2024-01-30T05:49:44;79829.50;;;-145.99;100.00
2875;BME280;1445;52.600;13.328;2024-01-30T05:52:09;79829.50;;;-145.99;100.00
2875;BME280;1445;52.600;13.328;2024-01-30T05:54:35;79823.19;;;-145.99;100.00
2875;BME280;1445;52.600;13.328;2024-01-30T05:57:00;79814.78;;;-145.99;100.00
2875;BME280;1445;52.600;13.328;2024-01-30T05:59:25;79806.38;;;-145.99;100.00
2875;BME280;1445;52.600;13.328;2024-01-30T06:01:50;79795.88;;;-145.99;100.00
2875;BME280;1445;52.600;13.328;2024-01-30T06:04:16;79793.75;;;-145.99;100.00
2875;BME280;1445;52.600;13.328;2024-01-30T06:06:41;79791.66;;;-145.99;100.00
2875;BME280;1445;52.600;13.328;2024-01-30T06:09:06;79785.34;;;-145.99;100.00
2875;BME280;1445;52.600;13.328;2024-01-30T06:11:34;79789.56;;;-145.99;100.00
2875;BME280;1445;52.600;13.328;2024-01-30T06:13:59;79791.66;;;-145.99;100.00
2875;BME280;1445;52.600;13.328;2024-01-30T06:16:24;79787.44;;;-145.99;100.00
2875;BME280;1445;52.600;13.328;2024-01-30T06:18:54;79791.66;;;-145.99;100.00
2875;BME280;1445;52.600;13.328;2024-01-30T06:21:19;79787.44;;;-145.99;100.00
2875;BME280;1445;52.600;13.328;2024-01-30T06:23:45;79797.97;;;-145.99;100.00
2875;BME280;1445;52.600;13.328;2024-01-30T06:26:10;79795.88;;;-145.99;100.00
2875;BME280;1445;52.600;13.328;2024-01-30T06:28:35;79806.38;;;-145.99;100.00
2875;BME280;1445;52.600;13.328;2024-01-30T06:31:01;79810.56;;;-145.99;100.00
2875;BME280;1445;52.600;13.328;2024-01-30T06:33:26;79816.88;;;-145.99;100.00
2875;BME280;1445;52.600;13.328;2024-01-30T06:35:51;79808.47;;;-145.99;100.00
2875;BME280;1445;52.600;13.328;2024-01-30T06:38:16;79816.88;;;-145.99;100.00
2875;BME280;1445;52.600;13.328;2024-01-30T06:40:42;79804.28;;;-145.99;100.00
2875;BME280;1445;52.600;13.328;2024-01-30T06:43:07;79804.28;;;-145.99;100.00
2875;BME280;1445;52.600;13.328;2024-01-30T06:45:33;79804.28;;;-145.99;100.00
2875;BME280;1445;52.600;13.328;2024-01-30T06:47:59;79802.16;;;-145.99;100.00
2875;BME280;1445;52.600;13.328;2024-01-30T06:50:27;79797.97;;;-145.99;100.00
2875;BME280;1445;52.600;13.328;2024-01-30T06:52:52;79791.66;;;-145.99;100.00
2875;BME280;1445;52.600;13.328;2024-01-30T06:55:18;79789.56;;;-145.99;100.00
2875;BME280;1445;52.600;13.328;2024-01-30T06:57:43;79791.66;;;-145.99;100.00
2875;BME280;1445;52.600;13.328;2024-01-30T07:00:08;79791.66;;;-145.99;100.00
2875;BME280;1445;52.600;13.328;2024-01-30T07:02:34;79791.66;;;-145.99;100.00
2875;BME280;1445;52.600;13.328;2024-01-30T07:04:59;79779.03;;;-145.99;100.00
2875;BME280;1445;52.600;13.328;2024-01-30T07:07:24;79781.16;;;-145.99;100.00
2875;BME280;1445;52.600;13.328;2024-01-30T07:09:50;79772.75;;;-145.99;100.00
2875;BME280;1445;52.600;13.328;2024-01-30T07:12:20;79770.63;;;-145.99;100.00
2875;BME280;1445;52.600;13.328;2024-01-30T07:14:46;79768.53;;;-145.99;100.00
2875;BME280;1445;52.600;13.328;2024-01-30T07:17:11;79753.81;;;-145.99;100.00
2875;BME280;1445;52.600;13.328;2024-01-30T07:19:36;79749.63;;;-145.99;100.00
2875;BME280;1445;52.600;13.328;2024-01-30T07:22:01;79732.81;;;-145.99;100.00
2875;BME280;1445;52.600;13.328;2024-01-30T07:24:27;79724.41;;;-145.99;100.00
2875;BME280;1445;52.600;13.328;2024-01-30T07:26:52;79716.00;;;-145.99;100.00
2875;BME280;1445;52.600;13.328;2024-01-30T07:29:17;79716.00;;;-145.99;100.00
2875;BME280;1445;52.600;13.328;2024-01-30T07:31:43;79699.19;;;-145.99;100.00
2875;BME280;1445;52.600;13.328;2024-01-30T07:34:08;79690.78;;;-145.99;100.00
2875;BME280;1445;52.600;13.328;2024-01-30T07:36:34;79684.47;;;-145.99;100.00
2875;BME280;1445;52.600;13.328;2024-01-30T07:38:59;79684.47;;;-145.99;100.00
2875;BME280;1445;52.600;13.328;2024-01-30T07:41:24;79682.38;;;-145.99;100.00
2875;BME280;1445;52.600;13.328;2024-01-30T07:43:50;79676.06;;;-145.99;100.00
2875;BME280;1445;52.600;13.328;2024-01-30T07:46:15;79657.16;;;-145.99;100.00
2875;BME280;1445;52.600;13.328;2024-01-30T07:48:40;79648.75;;;-145.99;100.00
2875;BME280;1445;52.600;13.328;2024-01-30T07:51:06;79648.75;;;-145.99;100.00
2875;BME280;1445;52.600;13.328;2024-01-30T07:53:31;79642.44;;;-145.99;100.00
2875;BME280;1445;52.600;13.328;2024-01-30T07:55:56;79644.53;;;-145.99;100.00
2875;BME280;1445;52.600;13.328;2024-01-30T07:58:21;79636.13;;;-145.99;100.00
2875;BME280;1445;52.600;13.328;2024-01-30T08:00:48;79631.94;;;-145.99;100.00
2875;BME280;1445;52.600;13.328;2024-01-30T08:03:14;79638.25;;;-145.99;100.00
2875;BME280;1445;52.600;13.328;2024-01-30T08:05:41;79636.13;;;-145.99;100.00
2875;BME280;1445;52.600;13.328;2024-01-30T08:08:06;79646.66;;;-145.99;100.00
2875;BME280;1445;52.600;13.328;2024-01-30T08:10:31;79642.44;;;-145.99;100.00
2875;BME280;1445;52.600;13.328;2024-01-30T08:12:57;79629.84;;;-145.99;100.00
2875;BME280;1445;52.600;13.328;2024-01-30T08:15:22;79604.63;;;-145.99;100.00
2875;BME280;1445;52.600;13.328;2024-01-30T08:17:47;79598.31;;;-145.99;100.00
2875;BME280;1445;52.600;13.328;2024-01-30T08:20:13;79592.00;;;-145.99;100.00
2875;BME280;1445;52.600;13.328;2024-01-30T08:22:39;79583.59;;;-145.99;100.00
2875;BME280;1445;52.600;13.328;2024-01-30T08:25:05;79579.41;;;-145.99;100.00
2875;BME280;1445;52.600;13.328;2024-01-30T08:27:30;79566.78;;;-145.99;100.00
2875;BME280;1445;52.600;13.328;2024-01-30T08:29:56;79543.66;;;-145.99;100.00
2875;BME280;1445;52.600;13.328;2024-01-30T08:32:21;79539.47;;;-145.99;100.00
2875;BME280;1445;52.600;13.328;2024-01-30T08:34:46;79531.06;;;-145.99;100.00
2875;BME280;1445;52.600;13.328;2024-01-30T08:37:12;79531.06;;;-145.99;100.00
2875;BME280;1445;52.600;13.328;2024-01-30T08:39:37;79539.47;;;-145.99;100.00
2875;BME280;1445;52.600;13.328;2024-01-30T08:42:02;79520.56;;;-145.99;100.00
2875;BME280;1445;52.600;13.328;2024-01-30T08:44:28;79528.97;;;-145.99;100.00
2875;BME280;1445;52.600;13.328;2024-01-30T08:46:53;79537.38;;;-145.99;100.00
2875;BME280;1445;52.600;13.328;2024-01-30T08:49:19;79537.38;;;-145.99;100.00
2875;BME280;1445;52.600;13.328;2024-01-30T08:51:45;79528.97;;;-145.99;100.00
2875;BME280;1445;52.600;13.328;2024-01-30T08:54:10;79522.66;;;-145.99;100.00
2875;BME280;1445;52.600;13.328;2024-01-30T08:56:36;79512.16;;;-145.99;100.00
2875;BME280;1445;52.600;13.328;2024-01-30T08:59:01;79489.03;;;-145.99;100.00
2875;BME280;1445;52.600;13.328;2024-01-30T09:01:26;79522.66;;;-145.99;100.00
2875;BME280;1445;52.600;13.328;2024-01-30T09:03:52;79489.03;;;-145.99;100.00
2875;BME280;1445;52.600;13.328;2024-01-30T09:06:18;79486.94;;;-145.99;100.00
2875;BME280;1445;52.600;13.328;2024-01-30T09:08:43;79484.81;;;-145.99;100.00
2875;BME280;1445;52.600;13.328;2024-01-30T09:11:09;79463.81;;;-145.99;100.00
2875;BME280;1445;52.600;13.328;2024-01-30T09:13:35;79457.50;;;-145.99;100.00
2875;BME280;1445;52.600;13.328;2024-01-30T09:16:00;79476.41;;;-145.99;100.00
2875;BME280;1445;52.600;13.328;2024-01-30T09:18:25;79436.50;;;-145.99;100.00
2875;BME280;1445;52.600;13.328;2024-01-30T09:20:50;79459.59;;;-145.99;100.00
2875;BME280;1445;52.600;13.328;2024-01-30T09:23:16;79455.41;;;-145.99;100.00
2875;BME280;1445;52.600;13.328;2024-01-30T09:25:42;79442.78;;;-145.99;100.00
2875;BME280;1445;52.600;13.328;2024-01-30T09:28:08;79434.41;;;-145.99;100.00
2875;BME280;1445;52.600;13.328;2024-01-30T09:30:34;79430.19;;;-145.99;100.00
2875;BME280;1445;52.600;13.328;2024-01-30T09:32:59;79417.59;;;-145.99;100.00
2875;BME280;1445;52.600;13.328;2024-01-30T09:35:24;79417.59;;;-145.99;100.00
2875;BME280;1445;52.600;13.328;2024-01-30T09:37:50;79392.38;;;-145.99;100.00
2875;BME280;1445;52.600;13.328;2024-01-30T09:40:16;79396.56;;;-145.99;100.00
2875;BME280;1445;52.600;13.328;2024-01-30T09:42:44;79388.16;;;-145.99;100.00
2875;BME280;1445;52.600;13.328;2024-01-30T09:45:11;79392.38;;;-145.99;100.00
2875;BME280;1445;52.600;13.328;2024-01-30T09:47:41;79381.84;;;-145.99;100.00
2875;BME280;1445;52.600;13.328;2024-01-30T09:50:11;79346.13;;;-145.99;100.00
2875;BME280;1445;52.600;13.328;2024-01-30T09:52:36;79306.22;;;-145.99;100.00
2875;BME280;1445;52.600;13.328;2024-01-30T09:55:02;79341.94;;;-145.99;100.00
2875;BME280;1445;52.600;13.328;2024-01-30T09:57:28;79344.03;;;-145.99;100.00
2875;BME280;1445;52.600;13.328;2024-01-30T09:59:54;79344.03;;;-145.99;100.00
2875;BME280;1445;52.600;13.328;2024-01-30T10:02:22;79327.22;;;-145.99;100.00
2875;BME280;1445;52.600;13.328;2024-01-30T10:04:48;79306.22;;;-145.99;100.00
2875;BME280;1445;52.600;13.328;2024-01-30T10:07:14;79297.81;;;-145.99;100.00
2875;BME280;1445;52.600;13.328;2024-01-30T10:09:40;79325.13;;;-145.99;100.00
2875;BME280;1445;52.600;13.328;2024-01-30T10:12:05;79329.31;;;-145.99;100.00
2875;BME280;1445;52.600;13.328;2024-01-30T10:14:31;79323.00;;;-145.99;100.00
2875;BME280;1445;52.600;13.328;2024-01-30T10:16:57;79312.50;;;-145.99;100.00
2875;BME280;1445;52.600;13.328;2024-01-30T10:19:22;79302.00;;;-145.99;100.00
2875;BME280;1445;52.600;13.328;2024-01-30T10:21:47;79283.09;;;-145.99;100.00
2875;BME280;1445;52.600;13.328;2024-01-30T10:24:13;79295.69;;;-145.99;100.00
2875;BME280;1445;52.600;13.328;2024-01-30T10:26:39;79287.28;;;-145.99;100.00
2875;BME280;1445;52.600;13.328;2024-01-30T10:29:04;79259.97;;;-145.99;100.00
2875;BME280;1445;52.600;13.328;2024-01-30T10:31:29;79243.16;;;-145.99;100.00
2875;BME280;1445;52.600;13.328;2024-01-30T10:33:54;79232.66;;;-145.99;100.00
2875;BME280;1445;52.600;13.328;2024-01-30T10:36:20;79220.06;;;-145.99;100.00
2875;BME280;1445;52.600;13.328;2024-01-30T10:38:50;79194.84;;;-145.99;100.00
2875;BME280;1445;52.600;13.328;2024-01-30T10:41:16;79194.84;;;-145.99;100.00
2875;BME280;1445;52.600;13.328;2024-01-30T10:43:45;79207.44;;;-145.99;99.92
2875;BME280;1445;52.600;13.328;2024-01-30T10:48:43;79129.69;;;-145.99;98.65
2875;BME280;1445;52.600;13.328;2024-01-30T10:51:12;79207.44;;;-145.99;98.52
2875;BME280;1445;52.600;13.328;2024-01-30T10:53:38;79140.19;;;-145.99;98.66
2875;BME280;1445;52.600;13.328;2024-01-30T10:56:03;79157.00;;;-145.99;98.55
2875;BME280;1445;52.600;13.328;2024-01-30T10:58:29;79146.50;;;-145.99;98.04
2875;BME280;1445;52.600;13.328;2024-01-30T11:00:55;79115.00;;;-145.99;96.88
2875;BME280;1445;52.600;13.328;2024-01-30T11:03:20;79102.38;;;-145.99;96.31
2875;BME280;1445;52.600;13.328;2024-01-30T11:05:49;79125.50;;;-145.99;95.72
2875;BME280;1445;52.600;13.328;2024-01-30T11:08:22;79117.09;;;-145.99;96.25
2875;BME280;1445;52.600;13.328;2024-01-30T11:10:47;79045.66;;;-145.99;95.01
2875;BME280;1445;52.600;13.328;2024-01-30T11:13:13;78991.00;;;-145.99;94.19
2875;BME280;1445;52.600;13.328;2024-01-30T11:15:39;79014.13;;;-145.99;92.46
2875;BME280;1445;52.600;13.328;2024-01-30T11:18:05;78995.22;;;-145.99;91.95
2875;BME280;1445;52.600;13.328;2024-01-30T11:20:31;78993.13;;;-145.99;91.19
2875;BME280;1445;52.600;13.328;2024-01-30T11:22:56;79009.94;;;-145.99;91.67
2875;BME280;1445;52.600;13.328;2024-01-30T11:25:22;78997.31;;;-145.99;91.71
2875;BME280;1445;52.600;13.328;2024-01-30T11:27:54;79018.34;;;-145.99;91.54
2875;BME280;1445;52.600;13.328;2024-01-30T11:30:23;79047.75;;;-145.99;92.79
2875;BME280;1445;52.600;13.328;2024-01-30T11:35:24;79077.16;;;-145.99;94.79
2875;BME280;1445;52.600;13.328;2024-01-30T11:37:49;79068.75;;;-145.99;94.84
2875;BME280;1445;52.600;13.328;2024-01-30T11:40:14;79068.75;;;-145.99;94.86
2875;BME280;1445;52.600;13.328;2024-01-30T11:42:40;79081.38;;;-145.99;94.74
2875;BME280;1445;52.600;13.328;2024-01-30T11:45:05;79035.13;;;-145.99;95.07
2875;BME280;1445;52.600;13.328;2024-01-30T11:47:31;79062.47;;;-145.99;94.66
2875;BME280;1445;52.600;13.328;2024-01-30T11:49:56;79039.34;;;-145.99;95.26
2875;BME280;1445;52.600;13.328;2024-01-30T11:52:22;79051.94;;;-145.99;95.13
2875;BME280;1445;52.600;13.328;2024-01-30T11:54:47;79081.38;;;-145.99;95.38
2875;BME280;1445;52.600;13.328;2024-01-30T11:57:12;79045.66;;;-145.99;95.59
2875;BME280;1445;52.600;13.328;2024-01-30T11:59:37;79035.13;;;-145.99;95.26
2875;BME280;1445;52.600;13.328;2024-01-30T12:02:03;79007.81;;;-145.99;94.21
2875;BME280;1445;52.600;13.328;2024-01-30T12:04:29;78997.31;;;-145.99;93.92
2875;BME280;1445;52.600;13.328;2024-01-30T12:06:54;78999.41;;;-145.99;93.51
2875;BME280;1445;52.600;13.328;2024-01-30T12:09:20;79012.03;;;-145.99;93.54
2875;BME280;1445;52.600;13.328;2024-01-30T12:11:47;79014.13;;;-145.99;94.19
2875;BME280;1445;52.600;13.328;2024-01-30T12:14:16;78993.13;;;-145.99;94.28
2875;BME280;1445;52.600;13.328;2024-01-30T12:16:42;79001.53;;;-145.99;94.42
2875;BME280;1445;52.600;13.328;2024-01-30T12:19:07;78944.78;;;-145.99;93.02
2875;BME280;1445;52.600;13.328;2024-01-30T12:21:33;78946.88;;;-145.99;93.19
2875;BME280;1445;52.600;13.328;2024-01-30T12:23:59;78953.19;;;-145.99;93.04
2875;BME280;1445;52.600;13.328;2024-01-30T12:26:25;78955.28;;;-145.99;92.75
2875;BME280;1445;52.600;13.328;2024-01-30T12:28:51;78938.47;;;-145.99;92.31
2875;BME280;1445;52.600;13.328;2024-01-30T12:31:18;78955.28;;;-145.99;93.20
2875;BME280;1445;52.600;13.328;2024-01-30T12:33:50;78963.69;;;-145.99;93.42
2875;BME280;1445;52.600;13.328;2024-01-30T12:36:15;78888.06;;;-145.99;92.55